createdAt,value
2022-09-23T06:37:28.119Z,20.42
2022-09-23T06:40:32.118Z,22.95
2022-09-23T06:43:34.927Z,26.73
2022-09-23T06:46:37.947Z,29.23
2022-09-23T06:49:40.673Z,18.83
2022-09-23T06:52:51.288Z,16.92
2022-09-23T06:56:03.953Z,18.85
2022-09-23T06:59:10.166Z,15.60
2022-09-23T07:02:14.334Z,14.63
2022-09-23T07:05:18.926Z,10.77
2022-09-23T07:08:21.563Z,13.48
2022-09-23T07:11:24.587Z,13.60
2022-09-23T07:14:27.170Z,15.50
2022-09-23T07:17:30.852Z,16.97
2022-09-23T07:20:34.439Z,17.45
2022-09-23T07:23:37.972Z,12.68
2022-09-23T07:26:45.483Z,14.98
2022-09-23T07:29:52.432Z,13.67
2022-09-23T07:32:56.369Z,14.93
2022-09-23T07:35:59.401Z,15.35
2022-09-23T07:39:03.727Z,14.73
2022-09-23T07:42:07.084Z,14.05
2022-09-23T07:45:09.868Z,14.87
2022-09-23T07:48:12.835Z,14.83
2022-09-23T07:51:21.756Z,13.80
2022-09-23T07:54:25.747Z,14.87
2022-09-23T07:57:28.394Z,11.25
2022-09-23T08:00:31.492Z,12.43
2022-09-23T08:03:35.406Z,9.67
2022-09-23T08:06:43.348Z,13.45
2022-09-23T08:09:46.257Z,12.85
2022-09-23T08:12:49.090Z,13.27
2022-09-23T08:15:55.358Z,12.60
2022-09-23T08:18:58.533Z,11.93
2022-09-23T08:22:01.557Z,10.75
2022-09-23T08:25:06.052Z,9.77
2022-09-23T08:28:10.584Z,10.50
2022-09-23T08:31:14.306Z,9.90
2022-09-23T08:34:19.752Z,9.60
2022-09-23T08:37:22.684Z,9.15
2022-09-23T08:40:25.943Z,9.27
2022-09-23T08:43:31.494Z,8.73
2022-09-23T08:46:48.164Z,11.03
2022-09-23T08:49:59.716Z,8.83
2022-09-23T08:53:07.977Z,17.08
2022-09-23T08:56:15.139Z,11.48
2022-09-23T08:59:41.230Z,12.43
2022-09-23T09:02:44.158Z,12.87
2022-09-23T09:05:54.138Z,13.90
2022-09-23T09:09:01.139Z,11.75
2022-09-23T09:12:17.589Z,10.88
2022-09-23T09:15:29.589Z,10.32
2022-09-23T09:18:35.205Z,9.10
2022-09-23T09:21:42.744Z,15.93
2022-09-23T09:24:50.041Z,9.38
2022-09-23T09:27:54.865Z,9.45
2022-09-23T09:31:03.204Z,12.25
2022-09-23T09:34:24.560Z,10.13
2022-09-23T09:37:39.654Z,10.97
2022-09-23T09:40:48.481Z,12.52
2022-09-23T09:43:56.485Z,11.73
2022-09-23T09:47:32.532Z,10.60
2022-09-23T09:50:53.161Z,9.83
2022-09-23T09:54:17.564Z,9.17
2022-09-23T09:57:37.274Z,10.20
2022-09-23T10:00:45.858Z,10.07
2022-09-23T10:03:53.060Z,10.05
2022-09-23T10:07:13.677Z,9.67
2022-09-23T10:10:33.245Z,9.87
2022-09-23T10:13:38.073Z,10.13
2022-09-23T10:16:42.274Z,10.18
2022-09-23T10:19:49.807Z,12.23
2022-09-23T10:22:55.692Z,10.80
2022-09-23T10:26:03.873Z,11.20
2022-09-23T10:29:33.670Z,13.27
2022-09-23T10:32:43.428Z,10.60
2022-09-23T10:35:58.551Z,14.30
2022-09-23T10:39:22.998Z,12.73
2022-09-23T10:42:51.903Z,12.47
2022-09-23T10:46:21.837Z,13.57
2022-09-23T10:49:43.947Z,10.43
2022-09-23T10:53:28.429Z,11.48
2022-09-23T10:56:43.238Z,10.23
2022-09-23T11:00:11.567Z,12.47
2022-09-23T11:04:06.230Z,10.43
2022-09-23T11:07:27.719Z,11.95
2022-09-23T11:10:56.059Z,13.80
2022-09-23T11:14:30.234Z,14.63
2022-09-23T11:18:02.993Z,11.20
2022-09-23T11:21:09.509Z,9.10
2022-09-23T11:24:52.353Z,9.80
2022-09-23T11:28:24.249Z,13.43
2022-09-23T11:32:12.221Z,10.97
2022-09-23T11:35:47.918Z,9.60
2022-09-23T11:38:52.711Z,18.80
2022-09-23T11:41:59.530Z,9.10
2022-09-23T11:45:21.700Z,10.02
2022-09-23T11:48:33.842Z,15.10
2022-09-23T11:52:19.749Z,9.63
2022-09-23T11:55:31.889Z,8.50
2022-09-23T11:58:58.262Z,6.68
2022-09-23T12:02:17.768Z,8.98
2022-09-23T12:05:32.248Z,6.87
2022-09-23T12:08:38.372Z,5.30
2022-09-23T12:11:51.124Z,6.37
2022-09-23T12:15:12.176Z,9.85
2022-09-23T12:18:25.114Z,9.27
2022-09-23T12:21:50.286Z,7.37
2022-09-23T12:25:13.199Z,8.60
2022-09-23T12:28:18.553Z,8.77
2022-09-23T12:31:33.929Z,6.90
2022-09-23T12:34:49.397Z,7.15
2022-09-23T12:38:00.593Z,5.93
2022-09-23T12:41:29.258Z,5.60
2022-09-23T12:44:47.302Z,7.60
2022-09-23T12:47:50.061Z,7.32
2022-09-23T12:51:06.840Z,6.20
2022-09-23T12:54:23.085Z,5.60
2022-09-23T12:57:35.380Z,6.00
2022-09-23T13:00:38.040Z,11.75
2022-09-23T13:04:18.035Z,8.98
2022-09-23T13:07:30.139Z,4.45
2022-09-23T13:10:42.122Z,3.93
2022-09-23T13:13:48.631Z,4.60
2022-09-23T13:16:53.587Z,3.78
2022-09-23T13:20:38.535Z,4.50
2022-09-23T13:24:13.582Z,4.10
2022-09-23T13:27:37.306Z,4.30
2022-09-23T13:30:50.497Z,3.90
2022-09-23T13:34:03.218Z,4.05
2022-09-23T13:37:22.443Z,3.92
2022-09-23T13:40:29.868Z,3.28
2022-09-23T13:43:44.071Z,3.97
2022-09-23T13:46:54.497Z,3.57
2022-09-23T13:49:58.003Z,4.12
2022-09-23T13:53:06.653Z,3.72
2022-09-23T13:56:15.605Z,3.30
2022-09-23T13:59:28.563Z,3.33
2022-09-23T14:02:31.574Z,4.63
2022-09-23T14:05:36.031Z,3.35
2022-09-23T14:08:43.155Z,4.97
2022-09-23T14:11:47.074Z,4.45
2022-09-23T14:14:56.207Z,4.63
2022-09-23T14:18:06.464Z,3.03
2022-09-23T14:21:27.685Z,7.03
2022-09-23T14:24:31.483Z,4.35
2022-09-23T14:27:36.631Z,3.55
2022-09-23T14:30:39.874Z,3.40
2022-09-23T14:33:43.633Z,3.53
2022-09-23T14:37:05.127Z,4.05
2022-09-23T14:40:50.974Z,3.45
2022-09-23T14:44:02.252Z,3.53
2022-09-23T14:47:08.024Z,5.07
2022-09-23T14:50:47.254Z,5.80
2022-09-23T14:53:49.908Z,3.60
2022-09-23T14:56:56.376Z,3.45
2022-09-23T15:00:09.887Z,6.82
2022-09-23T15:03:17.133Z,4.80
2022-09-23T15:06:23.217Z,5.07
2022-09-23T15:09:35.389Z,3.47
2022-09-23T15:12:38.402Z,9.52
2022-09-23T15:15:42.884Z,4.85
2022-09-23T15:18:53.612Z,3.60
2022-09-23T15:21:56.598Z,4.63
2022-09-23T15:25:40.281Z,4.00
2022-09-23T15:28:44.070Z,12.45
2022-09-23T15:31:46.973Z,12.68
2022-09-23T15:34:50.938Z,6.93
2022-09-23T15:38:00.730Z,6.20
2022-09-23T15:41:04.212Z,6.70
2022-09-23T15:44:15.311Z,11.12
2022-09-23T15:47:18.933Z,11.10
2022-09-23T15:50:21.875Z,11.13
2022-09-23T15:53:28.154Z,9.67
2022-09-23T15:56:30.745Z,8.32
2022-09-23T15:59:34.946Z,6.72
2022-09-23T16:02:37.695Z,6.95
2022-09-23T16:05:43.321Z,9.20
2022-09-23T16:08:48.469Z,7.57
2022-09-23T16:11:52.392Z,9.77
2022-09-23T16:14:55.804Z,6.70
2022-09-23T16:18:00.164Z,9.98
2022-09-23T16:21:04.694Z,8.70
2022-09-23T16:24:21.013Z,12.50
2022-09-23T16:27:26.206Z,9.68
2022-09-23T16:30:34.444Z,14.90
2022-09-23T16:33:37.129Z,22.37
2022-09-23T16:36:43.284Z,19.30
2022-09-23T16:39:49.671Z,35.53
2022-09-23T16:42:55.124Z,48.20
2022-09-23T16:45:58.118Z,33.72
2022-09-23T16:49:03.042Z,64.43
2022-09-23T16:52:05.812Z,45.93
2022-09-23T16:55:10.773Z,31.73
2022-09-23T16:58:13.833Z,26.48
2022-09-23T17:01:43.694Z,21.50
2022-09-23T17:04:46.759Z,37.65
2022-09-23T17:07:49.740Z,80.20
2022-09-23T17:10:59.369Z,75.77
2022-09-23T17:14:03.503Z,73.68
2022-09-23T17:17:09.464Z,66.80
2022-09-23T17:20:21.259Z,71.78
2022-09-23T17:23:25.522Z,56.90
2022-09-23T17:26:36.348Z,40.00
2022-09-23T17:29:42.132Z,44.40
2022-09-23T17:32:50.743Z,45.88
2022-09-23T17:36:03.221Z,38.33
2022-09-23T17:39:14.136Z,34.90
2022-09-23T17:42:25.423Z,37.60
2022-09-23T17:45:29.960Z,39.90
2022-09-23T17:48:38.815Z,38.55
2022-09-23T17:51:50.284Z,36.42
2022-09-23T17:54:59.193Z,39.70
2022-09-23T17:58:08.613Z,37.73
2022-09-23T18:01:24.910Z,35.95
2022-09-23T18:04:29.901Z,28.83
2022-09-23T18:07:38.526Z,32.35
2022-09-23T18:10:50.718Z,74.43
2022-09-23T18:14:05.954Z,108.10
2022-09-23T18:17:14.229Z,92.00
2022-09-23T18:20:24.348Z,82.05
2022-09-23T18:23:32.761Z,74.57
2022-09-23T18:26:42.254Z,81.87
2022-09-23T18:29:51.922Z,25.03
2022-09-23T18:32:58.475Z,25.75
2022-09-23T18:36:12.394Z,23.55
2022-09-23T18:39:20.312Z,22.58
2022-09-23T18:42:26.788Z,76.60
2022-09-23T18:45:36.166Z,62.77
2022-09-23T18:49:07.042Z,44.15
2022-09-23T18:52:15.789Z,34.28
2022-09-23T18:55:26.813Z,37.35
2022-09-23T18:58:36.199Z,27.93
2022-09-23T19:01:39.904Z,33.10
2022-09-23T19:04:47.587Z,39.15
2022-09-23T19:07:57.084Z,36.97
2022-09-23T19:11:10.030Z,31.62
2022-09-23T19:14:18.529Z,33.57
2022-09-23T19:17:27.378Z,27.07
2022-09-23T19:20:39.338Z,33.65
2022-09-23T19:24:14.049Z,28.20
2022-09-23T19:27:20.138Z,25.20
2022-09-23T19:30:34.761Z,25.97
2022-09-23T19:33:50.381Z,26.60
2022-09-23T19:37:01.633Z,27.60
2022-09-23T19:40:16.734Z,26.42
2022-09-23T19:43:26.646Z,27.98
2022-09-23T19:46:32.612Z,23.33
2022-09-23T19:49:35.747Z,34.57
2022-09-23T19:52:38.832Z,29.37
2022-09-23T19:55:43.308Z,32.75
2022-09-23T19:58:59.340Z,28.38
2022-09-23T20:02:05.005Z,30.57
2022-09-23T20:05:19.694Z,31.47
2022-09-23T20:08:29.457Z,29.98
2022-09-23T20:11:40.483Z,34.28
2022-09-23T20:14:44.445Z,28.15
2022-09-23T20:17:57.580Z,30.77
2022-09-23T20:21:07.188Z,27.33
2022-09-23T20:24:16.488Z,29.17
2022-09-23T20:27:26.987Z,22.73
2022-09-23T20:30:41.906Z,23.77
2022-09-23T20:33:59.673Z,23.63
2022-09-23T20:37:13.647Z,24.27
2022-09-23T20:40:20.300Z,25.48
2022-09-23T20:43:31.173Z,27.92
2022-09-23T20:46:37.822Z,26.00
2022-09-23T20:49:49.644Z,28.77
2022-09-23T20:52:59.319Z,30.23
2022-09-23T20:56:09.541Z,28.70
2022-09-23T20:59:15.941Z,27.80
2022-09-23T21:02:27.291Z,23.52
2022-09-23T21:05:40.060Z,25.50
2022-09-23T21:08:50.755Z,24.37
2022-09-23T21:12:02.825Z,24.85
2022-09-23T21:15:12.262Z,21.85
2022-09-23T21:18:27.554Z,25.00
2022-09-23T21:21:37.555Z,27.10
2022-09-23T21:25:26.988Z,27.67
2022-09-23T21:28:15.854Z,27.48
2022-09-23T21:31:29.666Z,24.48
2022-09-23T21:34:40.564Z,23.52
2022-09-23T21:37:48.224Z,25.30
2022-09-23T21:41:05.568Z,23.27
2022-09-23T21:44:11.505Z,26.58
2022-09-23T21:47:20.285Z,24.55
2022-09-23T21:50:31.932Z,23.90
2022-09-23T21:53:41.923Z,26.53
2022-09-23T21:56:49.363Z,23.00
2022-09-23T21:59:56.909Z,20.17
2022-09-23T22:03:07.012Z,23.15
2022-09-23T22:06:18.003Z,23.12
2022-09-23T22:09:27.400Z,24.17
2022-09-23T22:12:36.548Z,23.20
2022-09-23T22:15:48.787Z,22.00
2022-09-23T22:19:02.318Z,22.40
2022-09-23T22:22:14.763Z,30.23
2022-09-23T22:25:26.517Z,19.17
2022-09-23T22:28:54.224Z,19.47
2022-09-23T22:32:26.038Z,21.27
2022-09-23T22:35:35.928Z,20.73
2022-09-23T22:38:46.151Z,22.25
2022-09-23T22:41:53.140Z,21.77
2022-09-23T22:45:04.798Z,18.73
2022-09-23T22:48:16.027Z,22.00
2022-09-23T22:51:26.613Z,22.08
2022-09-23T22:54:34.189Z,20.27
2022-09-23T22:57:42.019Z,16.93
2022-09-23T23:00:48.958Z,19.60
2022-09-23T23:03:59.807Z,21.67
2022-09-23T23:07:07.616Z,17.30
2022-09-23T23:10:21.065Z,15.57
2022-09-23T23:13:34.364Z,15.43
2022-09-23T23:16:45.904Z,17.03
2022-09-23T23:19:54.669Z,17.00
2022-09-23T23:23:05.876Z,16.75
2022-09-23T23:26:18.964Z,16.45
2022-09-23T23:29:26.703Z,16.10
2022-09-23T23:32:38.095Z,13.80
2022-09-23T23:35:50.642Z,13.62
2022-09-23T23:38:53.425Z,14.30
2022-09-23T23:41:58.171Z,14.82
2022-09-23T23:45:00.814Z,15.33
2022-09-23T23:48:04.343Z,13.93
2022-09-23T23:51:08.750Z,14.30
2022-09-23T23:54:13.601Z,14.90
2022-09-23T23:57:16.253Z,13.13
